Bridge of Earn, United Kingdom
Current Conditions -  °F | °C
As of 3:50 PM on Sunday 23 Nov 2014 (Local Time) from EGPN Reporting Station
Clear Clear  
Wind Chill: 41°   Ceiling: Unl
Heat Index: 45°   Visibility: 6mi
Dew Point: 41°   Wind: 6mph
Humidity: 87%   Direction: 250°WSW
Pressure: 29.97"   Gusts: NA
Location:  56.35°N, 3.41°W
Report Text: EGPN 231550Z 25005KT CAVOK 07/05 Q1015
Loading
Personal Weather Stations






























Interactive Weather Map New forecast layout! Learn more

10-Day Weather Forecast

Advertisements
Track Severe Weather on mobile